sensor_id;sensor_type;location;lat;lon;timestamp;temperature;humidity
65637;DHT22;52327;42.622;23.316;2022-09-29T00:00:47;15.84;78.86
65637;DHT22;52327;42.622;23.316;2022-09-29T00:03:13;15.80;78.43
65637;DHT22;52327;42.622;23.316;2022-09-29T00:05:38;15.64;75.29
65637;DHT22;52327;42.622;23.316;2022-09-29T00:08:03;15.64;77.79
65637;DHT22;52327;42.622;23.316;2022-09-29T00:10:29;15.70;75.78
65637;DHT22;52327;42.622;23.316;2022-09-29T00:12:54;15.43;77.95
65637;DHT22;52327;42.622;23.316;2022-09-29T00:15:20;15.12;79.07
65637;DHT22;52327;42.622;23.316;2022-09-29T00:17:45;15.19;77.63
65637;DHT22;52327;42.622;23.316;2022-09-29T00:20:11;15.19;78.96
65637;DHT22;52327;42.622;23.316;2022-09-29T00:22:36;15.03;77.61
65637;DHT22;52327;42.622;23.316;2022-09-29T00:25:02;15.15;80.39
65637;DHT22;52327;42.622;23.316;2022-09-29T00:27:27;15.25;79.08
65637;DHT22;52327;42.622;23.316;2022-09-29T00:29:52;15.32;77.04
65637;DHT22;52327;42.622;23.316;2022-09-29T00:32:18;15.29;78.76
65637;DHT22;52327;42.622;23.316;2022-09-29T00:34:43;15.26;78.51
65637;DHT22;52327;42.622;23.316;2022-09-29T00:37:09;15.08;81.24
65637;DHT22;52327;42.622;23.316;2022-09-29T00:39:34;15.01;82.16
65637;DHT22;52327;42.622;23.316;2022-09-29T00:42:00;15.16;76.92
65637;DHT22;52327;42.622;23.316;2022-09-29T00:44:54;15.16;79.11
65637;DHT22;52327;42.622;23.316;2022-09-29T00:47:22;14.87;79.55
65637;DHT22;52327;42.622;23.316;2022-09-29T00:50:04;14.74;79.03
65637;DHT22;52327;42.622;23.316;2022-09-29T00:52:36;14.81;80.77
65637;DHT22;52327;42.622;23.316;2022-09-29T00:55:21;14.82;79.39
65637;DHT22;52327;42.622;23.316;2022-09-29T00:57:55;14.75;80.80
65637;DHT22;52327;42.622;23.316;2022-09-29T01:00:22;14.70;80.43
65637;DHT22;52327;42.622;23.316;2022-09-29T01:03:01;14.71;77.79
65637;DHT22;52327;42.622;23.316;2022-09-29T01:05:31;14.78;77.65
65637;DHT22;52327;42.622;23.316;2022-09-29T01:08:02;14.74;82.32
65637;DHT22;52327;42.622;23.316;2022-09-29T01:10:30;14.71;80.71
65637;DHT22;52327;42.622;23.316;2022-09-29T01:12:56;14.40;80.25
65637;DHT22;52327;42.622;23.316;2022-09-29T01:15:21;14.36;82.67
65637;DHT22;52327;42.622;23.316;2022-09-29T01:17:47;14.38;81.74
65637;DHT22;52327;42.622;23.316;2022-09-29T01:20:17;14.38;80.90
65637;DHT22;52327;42.622;23.316;2022-09-29T01:39:35;13.73;83.39
65637;DHT22;52327;42.622;23.316;2022-09-29T01:42:06;13.59;83.16
65637;DHT22;52327;42.622;23.316;2022-09-29T01:47:28;13.63;83.81
65637;DHT22;52327;42.622;23.316;2022-09-29T01:49:58;13.70;84.76
65637;DHT22;52327;42.622;23.316;2022-09-29T01:52:28;13.68;84.86
65637;DHT22;52327;42.622;23.316;2022-09-29T01:55:02;13.52;83.97
65637;DHT22;52327;42.622;23.316;2022-09-29T01:57:54;13.55;84.92
65637;DHT22;52327;42.622;23.316;2022-09-29T02:00:21;13.75;81.14
65637;DHT22;52327;42.622;23.316;2022-09-29T02:03:12;13.75;84.49
65637;DHT22;52327;42.622;23.316;2022-09-29T02:08:16;13.48;84.43
65637;DHT22;52327;42.622;23.316;2022-09-29T02:13:29;13.47;86.10
65637;DHT22;52327;42.622;23.316;2022-09-29T02:15:56;13.45;86.21
65637;DHT22;52327;42.622;23.316;2022-09-29T02:18:26;13.57;85.00
65637;DHT22;52327;42.622;23.316;2022-09-29T02:20:54;13.58;85.12
65637;DHT22;52327;42.622;23.316;2022-09-29T02:23:20;13.62;83.41
65637;DHT22;52327;42.622;23.316;2022-09-29T02:25:47;13.65;85.02
65637;DHT22;52327;42.622;23.316;2022-09-29T02:28:14;13.68;85.31
65637;DHT22;52327;42.622;23.316;2022-09-29T02:30:40;13.72;81.89
65637;DHT22;52327;42.622;23.316;2022-09-29T02:33:16;13.73;84.54
65637;DHT22;52327;42.622;23.316;2022-09-29T02:51:47;13.45;82.10
65637;DHT22;52327;42.622;23.316;2022-09-29T02:57:27;13.03;86.26
65637;DHT22;52327;42.622;23.316;2022-09-29T03:00:11;13.06;86.56
65637;DHT22;52327;42.622;23.316;2022-09-29T03:02:38;13.29;84.76
65637;DHT22;52327;42.622;23.316;2022-09-29T03:05:12;13.42;85.58
65637;DHT22;52327;42.622;23.316;2022-09-29T03:07:38;13.41;83.24
65637;DHT22;52327;42.622;23.316;2022-09-29T03:10:05;13.52;83.98
65637;DHT22;52327;42.622;23.316;2022-09-29T03:12:30;13.42;83.14
65637;DHT22;52327;42.622;23.316;2022-09-29T03:14:56;13.42;85.04
65637;DHT22;52327;42.622;23.316;2022-09-29T03:17:21;13.58;82.27
65637;DHT22;52327;42.622;23.316;2022-09-29T03:19:47;13.76;82.19
65637;DHT22;52327;42.622;23.316;2022-09-29T03:22:12;13.82;82.39
65637;DHT22;52327;42.622;23.316;2022-09-29T03:24:38;13.55;82.99
65637;DHT22;52327;42.622;23.316;2022-09-29T03:27:03;13.66;82.41
65637;DHT22;52327;42.622;23.316;2022-09-29T03:29:30;13.72;83.72
65637;DHT22;52327;42.622;23.316;2022-09-29T03:31:57;13.68;82.04
65637;DHT22;52327;42.622;23.316;2022-09-29T03:34:23;13.75;82.93
65637;DHT22;52327;42.622;23.316;2022-09-29T03:36:49;13.68;83.54
65637;DHT22;52327;42.622;23.316;2022-09-29T03:39:14;13.70;81.21
65637;DHT22;52327;42.622;23.316;2022-09-29T03:41:39;13.54;83.96
65637;DHT22;52327;42.622;23.316;2022-09-29T03:44:05;13.39;84.43
65637;DHT22;52327;42.622;23.316;2022-09-29T03:46:31;13.22;84.36
65637;DHT22;52327;42.622;23.316;2022-09-29T03:48:56;13.27;85.18
65637;DHT22;52327;42.622;23.316;2022-09-29T03:51:22;13.41;84.04
65637;DHT22;52327;42.622;23.316;2022-09-29T03:53:47;13.27;83.50
65637;DHT22;52327;42.622;23.316;2022-09-29T03:56:13;13.24;83.69
65637;DHT22;52327;42.622;23.316;2022-09-29T03:58:39;13.17;83.96
65637;DHT22;52327;42.622;23.316;2022-09-29T04:01:04;13.08;85.16
65637;DHT22;52327;42.622;23.316;2022-09-29T04:03:30;13.01;85.06
65637;DHT22;52327;42.622;23.316;2022-09-29T04:05:56;12.88;85.76
65637;DHT22;52327;42.622;23.316;2022-09-29T04:08:21;13.00;86.01
65637;DHT22;52327;42.622;23.316;2022-09-29T04:10:47;12.96;85.89
65637;DHT22;52327;42.622;23.316;2022-09-29T04:13:13;12.88;85.67
65637;DHT22;52327;42.622;23.316;2022-09-29T04:15:39;12.88;85.59
65637;DHT22;52327;42.622;23.316;2022-09-29T04:18:04;12.91;86.61
65637;DHT22;52327;42.622;23.316;2022-09-29T04:20:30;12.79;86.22
65637;DHT22;52327;42.622;23.316;2022-09-29T04:22:56;12.73;86.20
65637;DHT22;52327;42.622;23.316;2022-09-29T04:25:22;12.94;84.58
65637;DHT22;52327;42.622;23.316;2022-09-29T04:27:47;12.91;86.26
65637;DHT22;52327;42.622;23.316;2022-09-29T04:30:13;12.87;83.97
65637;DHT22;52327;42.622;23.316;2022-09-29T04:32:38;12.88;85.74
65637;DHT22;52327;42.622;23.316;2022-09-29T04:35:04;12.81;85.93
65637;DHT22;52327;42.622;23.316;2022-09-29T04:37:29;12.73;86.62
65637;DHT22;52327;42.622;23.316;2022-09-29T04:39:56;12.87;85.02
65637;DHT22;52327;42.622;23.316;2022-09-29T04:42:21;12.80;87.00
65637;DHT22;52327;42.622;23.316;2022-09-29T04:44:47;12.79;85.57
65637;DHT22;52327;42.622;23.316;2022-09-29T04:47:13;12.91;84.82
65637;DHT22;52327;42.622;23.316;2022-09-29T04:49:38;12.73;86.46
65637;DHT22;52327;42.622;23.316;2022-09-29T04:52:04;12.57;86.55
65637;DHT22;52327;42.622;23.316;2022-09-29T04:54:31;12.52;86.97
65637;DHT22;52327;42.622;23.316;2022-09-29T04:56:56;12.50;86.39
65637;DHT22;52327;42.622;23.316;2022-09-29T04:59:22;12.49;87.33
65637;DHT22;52327;42.622;23.316;2022-09-29T05:01:48;12.59;87.55
65637;DHT22;52327;42.622;23.316;2022-09-29T05:04:13;12.86;85.95
65637;DHT22;52327;42.622;23.316;2022-09-29T05:06:39;13.01;86.64
65637;DHT22;52327;42.622;23.316;2022-09-29T05:09:05;13.15;84.19
65637;DHT22;52327;42.622;23.316;2022-09-29T05:11:30;13.35;85.17
65637;DHT22;52327;42.622;23.316;2022-09-29T05:13:56;13.47;85.69
65637;DHT22;52327;42.622;23.316;2022-09-29T05:16:21;13.57;85.64
65637;DHT22;52327;42.622;23.316;2022-09-29T05:18:47;13.68;84.62
65637;DHT22;52327;42.622;23.316;2022-09-29T05:21:12;13.66;85.55
65637;DHT22;52327;42.622;23.316;2022-09-29T05:23:38;13.70;85.49
65637;DHT22;52327;42.622;23.316;2022-09-29T05:26:07;13.82;84.06
65637;DHT22;52327;42.622;23.316;2022-09-29T05:28:33;13.83;84.05
65637;DHT22;52327;42.622;23.316;2022-09-29T05:31:03;14.09;83.08
65637;DHT22;52327;42.622;23.316;2022-09-29T05:33:29;14.31;82.67
65637;DHT22;52327;42.622;23.316;2022-09-29T05:35:55;14.57;80.26
65637;DHT22;52327;42.622;23.316;2022-09-29T05:38:20;14.68;80.13
65637;DHT22;52327;42.622;23.316;2022-09-29T05:40:47;14.82;79.34
65637;DHT22;52327;42.622;23.316;2022-09-29T05:43:13;14.82;79.29
65637;DHT22;52327;42.622;23.316;2022-09-29T05:45:38;14.96;79.48
65637;DHT22;52327;42.622;23.316;2022-09-29T05:48:04;15.15;78.09
65637;DHT22;52327;42.622;23.316;2022-09-29T05:50:29;15.31;78.40
65637;DHT22;52327;42.622;23.316;2022-09-29T05:53:01;15.09;78.79
65637;DHT22;52327;42.622;23.316;2022-09-29T05:55:26;15.01;79.05
65637;DHT22;52327;42.622;23.316;2022-09-29T05:57:52;14.89;79.07
65637;DHT22;52327;42.622;23.316;2022-09-29T06:00:17;15.13;78.82
65637;DHT22;52327;42.622;23.316;2022-09-29T06:02:43;15.16;78.72
65637;DHT22;52327;42.622;23.316;2022-09-29T06:05:08;15.53;77.40
65637;DHT22;52327;42.622;23.316;2022-09-29T06:07:33;15.63;76.03
65637;DHT22;52327;42.622;23.316;2022-09-29T06:09:59;15.60;75.94
65637;DHT22;52327;42.622;23.316;2022-09-29T06:12:24;15.63;75.25
65637;DHT22;52327;42.622;23.316;2022-09-29T06:14:49;15.57;75.62
65637;DHT22;52327;42.622;23.316;2022-09-29T06:17:15;15.50;76.59
65637;DHT22;52327;42.622;23.316;2022-09-29T06:19:40;15.73;76.42
65637;DHT22;52327;42.622;23.316;2022-09-29T06:22:06;15.82;75.36
65637;DHT22;52327;42.622;23.316;2022-09-29T06:24:31;15.63;75.89
65637;DHT22;52327;42.622;23.316;2022-09-29T06:26:57;15.42;77.20
65637;DHT22;52327;42.622;23.316;2022-09-29T06:29:22;15.49;76.16
65637;DHT22;52327;42.622;23.316;2022-09-29T06:31:47;15.69;76.82
65637;DHT22;52327;42.622;23.316;2022-09-29T06:34:13;15.93;75.32
65637;DHT22;52327;42.622;23.316;2022-09-29T06:36:43;16.20;73.27
65637;DHT22;52327;42.622;23.316;2022-09-29T06:39:28;16.52;70.66
65637;DHT22;52327;42.622;23.316;2022-09-29T06:41:54;16.65;70.96
65637;DHT22;52327;42.622;23.316;2022-09-29T06:44:25;16.90;72.81
65637;DHT22;52327;42.622;23.316;2022-09-29T06:46:52;16.97;68.91
65637;DHT22;52327;42.622;23.316;2022-09-29T06:49:19;17.13;72.45
65637;DHT22;52327;42.622;23.316;2022-09-29T06:51:45;17.19;72.96
65637;DHT22;52327;42.622;23.316;2022-09-29T06:54:15;17.36;71.89
65637;DHT22;52327;42.622;23.316;2022-09-29T06:56:40;17.47;70.98
65637;DHT22;52327;42.622;23.316;2022-09-29T06:59:07;17.50;71.01
65637;DHT22;52327;42.622;23.316;2022-09-29T07:01:33;17.50;70.57
65637;DHT22;52327;42.622;23.316;2022-09-29T07:03:58;17.53;70.67
65637;DHT22;52327;42.622;23.316;2022-09-29T07:06:25;17.61;71.95
65637;DHT22;52327;42.622;23.316;2022-09-29T07:08:55;17.68;70.06
65637;DHT22;52327;42.622;23.316;2022-09-29T07:11:20;17.84;68.00
65637;DHT22;52327;42.622;23.316;2022-09-29T07:13:47;17.97;70.33
65637;DHT22;52327;42.622;23.316;2022-09-29T07:16:14;18.09;67.51
65637;DHT22;52327;42.622;23.316;2022-09-29T07:18:41;18.16;67.18
65637;DHT22;52327;42.622;23.316;2022-09-29T07:21:09;18.15;68.97
65637;DHT22;52327;42.622;23.316;2022-09-29T07:23:36;18.22;68.67
65637;DHT22;52327;42.622;23.316;2022-09-29T07:26:03;18.32;66.90
65637;DHT22;52327;42.622;23.316;2022-09-29T07:28:29;18.35;69.13
65637;DHT22;52327;42.622;23.316;2022-09-29T07:33:27;18.45;67.37
65637;DHT22;52327;42.622;23.316;2022-09-29T07:35:54;18.46;68.85
65637;DHT22;52327;42.622;23.316;2022-09-29T07:38:20;18.40;67.54
65637;DHT22;52327;42.622;23.316;2022-09-29T07:40:45;18.38;69.21
65637;DHT22;52327;42.622;23.316;2022-09-29T07:43:11;18.35;68.88
65637;DHT22;52327;42.622;23.316;2022-09-29T07:45:37;18.39;66.96
65637;DHT22;52327;42.622;23.316;2022-09-29T07:48:02;18.46;67.87
65637;DHT22;52327;42.622;23.316;2022-09-29T07:50:28;18.52;68.95
65637;DHT22;52327;42.622;23.316;2022-09-29T07:52:53;18.60;67.57
65637;DHT22;52327;42.622;23.316;2022-09-29T07:55:19;18.60;67.37
65637;DHT22;52327;42.622;23.316;2022-09-29T07:58:00;18.67;66.11
65637;DHT22;52327;42.622;23.316;2022-09-29T08:00:27;18.69;67.98
65637;DHT22;52327;42.622;23.316;2022-09-29T08:02:58;18.74;66.15
65637;DHT22;52327;42.622;23.316;2022-09-29T08:05:25;18.77;66.35
65637;DHT22;52327;42.622;23.316;2022-09-29T08:07:51;18.71;68.94
65637;DHT22;52327;42.622;23.316;2022-09-29T08:10:18;18.55;69.04
65637;DHT22;52327;42.622;23.316;2022-09-29T08:12:43;18.38;69.50
65637;DHT22;52327;42.622;23.316;2022-09-29T08:15:09;18.39;67.30
65637;DHT22;52327;42.622;23.316;2022-09-29T08:17:34;18.29;69.20
65637;DHT22;52327;42.622;23.316;2022-09-29T08:20:00;18.08;68.85
65637;DHT22;52327;42.622;23.316;2022-09-29T08:22:25;17.50;70.15
65637;DHT22;52327;42.622;23.316;2022-09-29T08:24:51;17.66;69.22
65637;DHT22;52327;42.622;23.316;2022-09-29T08:27:16;17.81;69.68
65637;DHT22;52327;42.622;23.316;2022-09-29T08:29:42;17.84;68.21
65637;DHT22;52327;42.622;23.316;2022-09-29T08:32:08;18.09;72.24
65637;DHT22;52327;42.622;23.316;2022-09-29T08:34:33;18.29;69.18
65637;DHT22;52327;42.622;23.316;2022-09-29T08:36:59;18.59;68.64
65637;DHT22;52327;42.622;23.316;2022-09-29T08:39:24;18.38;67.58
65637;DHT22;52327;42.622;23.316;2022-09-29T08:41:58;18.39;68.68
65637;DHT22;52327;42.622;23.316;2022-09-29T08:49:57;18.64;65.43
65637;DHT22;52327;42.622;23.316;2022-09-29T08:52:26;18.63;65.54
65637;DHT22;52327;42.622;23.316;2022-09-29T08:57:45;17.82;68.14
65637;DHT22;52327;42.622;23.316;2022-09-29T09:00:16;18.16;67.37
65637;DHT22;52327;42.622;23.316;2022-09-29T09:08:53;18.81;68.63
65637;DHT22;52327;42.622;23.316;2022-09-29T09:24:57;18.53;61.38
65637;DHT22;52327;42.622;23.316;2022-09-29T09:27:31;18.83;57.49
65637;DHT22;52327;42.622;23.316;2022-09-29T09:30:05;19.00;55.19
65637;DHT22;52327;42.622;23.316;2022-09-29T09:32:41;19.27;55.38
65637;DHT22;52327;42.622;23.316;2022-09-29T09:35:31;19.54;56.21
65637;DHT22;52327;42.622;23.316;2022-09-29T09:38:07;19.52;51.22
65637;DHT22;52327;42.622;23.316;2022-09-29T09:40:42;19.81;52.97
65637;DHT22;52327;42.622;23.316;2022-09-29T09:45:44;20.08;53.61
65637;DHT22;52327;42.622;23.316;2022-09-29T09:48:14;20.05;52.70
65637;DHT22;52327;42.622;23.316;2022-09-29T09:50:41;20.32;52.61
65637;DHT22;52327;42.622;23.316;2022-09-29T09:53:30;20.51;50.01
65637;DHT22;52327;42.622;23.316;2022-09-29T09:56:40;20.37;50.03
65637;DHT22;52327;42.622;23.316;2022-09-29T09:59:37;20.71;50.32
65637;DHT22;52327;42.622;23.316;2022-09-29T10:02:16;21.12;50.62
65637;DHT22;52327;42.622;23.316;2022-09-29T10:04:42;21.41;48.73
65637;DHT22;52327;42.622;23.316;2022-09-29T10:07:24;21.53;47.35
65637;DHT22;52327;42.622;23.316;2022-09-29T10:09:52;22.10;50.85
65637;DHT22;52327;42.622;23.316;2022-09-29T10:12:20;22.33;53.68
65637;DHT22;52327;42.622;23.316;2022-09-29T10:14:58;22.35;53.01
65637;DHT22;52327;42.622;23.316;2022-09-29T10:17:26;22.25;46.16
65637;DHT22;52327;42.622;23.316;2022-09-29T10:20:00;22.07;45.93
65637;DHT22;52327;42.622;23.316;2022-09-29T10:22:28;21.93;47.23
65637;DHT22;52327;42.622;23.316;2022-09-29T10:27:41;22.62;48.10
65637;DHT22;52327;42.622;23.316;2022-09-29T10:30:22;22.84;47.51
65637;DHT22;52327;42.622;23.316;2022-09-29T10:32:57;23.12;45.88
65637;DHT22;52327;42.622;23.316;2022-09-29T10:35:40;23.42;46.84
65637;DHT22;52327;42.622;23.316;2022-09-29T10:38:15;23.45;45.23
65637;DHT22;52327;42.622;23.316;2022-09-29T10:40:58;23.02;44.69
65637;DHT22;52327;42.622;23.316;2022-09-29T10:43:34;23.19;44.30
65637;DHT22;52327;42.622;23.316;2022-09-29T10:46:00;23.26;43.46
65637;DHT22;52327;42.622;23.316;2022-09-29T10:48:26;23.49;41.82
65637;DHT22;52327;42.622;23.316;2022-09-29T10:51:00;23.60;46.00
65637;DHT22;52327;42.622;23.316;2022-09-29T10:53:37;23.09;45.81
65637;DHT22;52327;42.622;23.316;2022-09-29T10:56:30;22.30;43.27
65637;DHT22;52327;42.622;23.316;2022-09-29T10:58:58;21.87;44.58
65637;DHT22;52327;42.622;23.316;2022-09-29T11:01:25;21.76;46.41
65637;DHT22;52327;42.622;23.316;2022-09-29T11:06:30;22.08;47.64
65637;DHT22;52327;42.622;23.316;2022-09-29T11:09:05;22.47;47.78
65637;DHT22;52327;42.622;23.316;2022-09-29T11:11:38;22.61;48.12
65637;DHT22;52327;42.622;23.316;2022-09-29T11:14:04;22.89;46.95
65637;DHT22;52327;42.622;23.316;2022-09-29T11:16:32;23.16;48.25
65637;DHT22;52327;42.622;23.316;2022-09-29T11:21:51;23.07;44.03
65637;DHT22;52327;42.622;23.316;2022-09-29T11:26:57;23.26;46.15
65637;DHT22;52327;42.622;23.316;2022-09-29T11:35:53;24.32;43.17
65637;DHT22;52327;42.622;23.316;2022-09-29T11:50:44;23.56;40.91
65637;DHT22;52327;42.622;23.316;2022-09-29T12:17:01;26.39;38.81
65637;DHT22;52327;42.622;23.316;2022-09-29T12:19:31;27.56;33.34
65637;DHT22;52327;42.622;23.316;2022-09-29T12:22:00;30.04;30.40
65637;DHT22;52327;42.622;23.316;2022-09-29T12:26:55;31.16;27.99
65637;DHT22;52327;42.622;23.316;2022-09-29T12:29:43;32.70;26.57
65637;DHT22;52327;42.622;23.316;2022-09-29T12:32:16;34.93;24.71
65637;DHT22;52327;42.622;23.316;2022-09-29T12:34:57;36.18;22.25
65637;DHT22;52327;42.622;23.316;2022-09-29T12:37:32;34.31;23.73
65637;DHT22;52327;42.622;23.316;2022-09-29T12:40:08;32.39;25.91
65637;DHT22;52327;42.622;23.316;2022-09-29T12:50:35;34.01;23.86
65637;DHT22;52327;42.622;23.316;2022-09-29T12:53:14;36.35;23.75
65637;DHT22;52327;42.622;23.316;2022-09-29T12:55:49;36.91;21.15
65637;DHT22;52327;42.622;23.316;2022-09-29T12:58:24;39.22;20.84
65637;DHT22;52327;42.622;23.316;2022-09-29T13:00:59;39.42;19.33
65637;DHT22;52327;42.622;23.316;2022-09-29T13:03:39;36.91;23.95
65637;DHT22;52327;42.622;23.316;2022-09-29T15:15:33;16.93;93.52
65637;DHT22;52327;42.622;23.316;2022-09-29T15:21:06;16.73;92.86
65637;DHT22;52327;42.622;23.316;2022-09-29T15:45:31;15.21;93.89
65637;DHT22;52327;42.622;23.316;2022-09-29T15:47:59;15.29;94.06
65637;DHT22;52327;42.622;23.316;2022-09-29T15:50:27;15.40;93.68
65637;DHT22;52327;42.622;23.316;2022-09-29T15:52:57;15.53;94.12
65637;DHT22;52327;42.622;23.316;2022-09-29T15:55:26;15.50;94.62
65637;DHT22;52327;42.622;23.316;2022-09-29T15:57:51;15.60;94.32
65637;DHT22;52327;42.622;23.316;2022-09-29T16:03:09;15.52;93.84
65637;DHT22;52327;42.622;23.316;2022-09-29T16:05:39;15.42;93.27
65637;DHT22;52327;42.622;23.316;2022-09-29T16:08:13;15.35;93.13
65637;DHT22;52327;42.622;23.316;2022-09-29T16:10:49;15.28;92.76
65637;DHT22;52327;42.622;23.316;2022-09-29T16:13:39;15.25;93.71
65637;DHT22;52327;42.622;23.316;2022-09-29T16:16:08;15.05;94.53
65637;DHT22;52327;42.622;23.316;2022-09-29T16:18:38;15.03;94.65
65637;DHT22;52327;42.622;23.316;2022-09-29T16:21:07;15.11;94.58
65637;DHT22;52327;42.622;23.316;2022-09-29T16:23:40;15.16;94.58
65637;DHT22;52327;42.622;23.316;2022-09-29T16:28:35;15.12;93.93
65637;DHT22;52327;42.622;23.316;2022-09-29T16:31:04;14.96;94.51
65637;DHT22;52327;42.622;23.316;2022-09-29T16:33:32;14.82;94.84
65637;DHT22;52327;42.622;23.316;2022-09-29T16:36:10;14.80;94.97
65637;DHT22;52327;42.622;23.316;2022-09-29T16:38:41;14.64;95.40
65637;DHT22;52327;42.622;23.316;2022-09-29T16:41:30;14.64;95.52
65637;DHT22;52327;42.622;23.316;2022-09-29T16:46:32;14.72;95.27
65637;DHT22;52327;42.622;23.316;2022-09-29T16:48:58;14.72;94.98
65637;DHT22;52327;42.622;23.316;2022-09-29T16:51:24;14.74;94.88
65637;DHT22;52327;42.622;23.316;2022-09-29T16:53:50;14.72;94.82
65637;DHT22;52327;42.622;23.316;2022-09-29T16:56:24;14.87;95.16
65637;DHT22;52327;42.622;23.316;2022-09-29T16:59:13;15.12;94.93
65637;DHT22;52327;42.622;23.316;2022-09-29T17:01:41;15.35;94.31
65637;DHT22;52327;42.622;23.316;2022-09-29T17:04:08;15.40;93.21
65637;DHT22;52327;42.622;23.316;2022-09-29T17:06:33;15.46;93.79
65637;DHT22;52327;42.622;23.316;2022-09-29T17:08:59;15.57;93.92
65637;DHT22;52327;42.622;23.316;2022-09-29T17:11:25;15.66;93.86
65637;DHT22;52327;42.622;23.316;2022-09-29T17:13:52;15.70;93.90
65637;DHT22;52327;42.622;23.316;2022-09-29T17:16:17;15.79;93.58
65637;DHT22;52327;42.622;23.316;2022-09-29T17:18:50;15.80;93.11
65637;DHT22;52327;42.622;23.316;2022-09-29T17:21:17;15.80;93.05
65637;DHT22;52327;42.622;23.316;2022-09-29T17:23:42;15.73;92.79
65637;DHT22;52327;42.622;23.316;2022-09-29T17:26:20;15.57;92.24
65637;DHT22;52327;42.622;23.316;2022-09-29T17:29:05;15.49;92.64
65637;DHT22;52327;42.622;23.316;2022-09-29T17:31:31;15.43;92.67
65637;DHT22;52327;42.622;23.316;2022-09-29T17:33:56;15.43;92.81
65637;DHT22;52327;42.622;23.316;2022-09-29T17:36:21;15.38;92.44
65637;DHT22;52327;42.622;23.316;2022-09-29T17:38:49;15.29;92.74
65637;DHT22;52327;42.622;23.316;2022-09-29T17:41:15;15.23;92.68
65637;DHT22;52327;42.622;23.316;2022-09-29T17:43:44;15.02;92.55
65637;DHT22;52327;42.622;23.316;2022-09-29T17:46:13;15.08;92.68
65637;DHT22;52327;42.622;23.316;2022-09-29T17:48:42;15.05;92.76
65637;DHT22;52327;42.622;23.316;2022-09-29T17:51:12;15.08;92.55
65637;DHT22;52327;42.622;23.316;2022-09-29T17:53:38;15.02;92.72
65637;DHT22;52327;42.622;23.316;2022-09-29T17:56:03;14.96;92.48
65637;DHT22;52327;42.622;23.316;2022-09-29T17:58:29;14.80;92.93
65637;DHT22;52327;42.622;23.316;2022-09-29T18:00:55;14.64;93.49
65637;DHT22;52327;42.622;23.316;2022-09-29T18:03:22;14.71;93.70
65637;DHT22;52327;42.622;23.316;2022-09-29T18:05:51;14.81;93.08
65637;DHT22;52327;42.622;23.316;2022-09-29T18:08:22;14.75;93.29
65637;DHT22;52327;42.622;23.316;2022-09-29T18:10:51;14.68;93.36
65637;DHT22;52327;42.622;23.316;2022-09-29T18:13:17;14.74;93.11
65637;DHT22;52327;42.622;23.316;2022-09-29T18:15:43;14.64;93.18
65637;DHT22;52327;42.622;23.316;2022-09-29T18:18:10;14.56;93.65
65637;DHT22;52327;42.622;23.316;2022-09-29T18:20:36;14.65;93.41
65637;DHT22;52327;42.622;23.316;2022-09-29T18:23:02;14.44;93.99
65637;DHT22;52327;42.622;23.316;2022-09-29T18:25:30;14.41;94.01
65637;DHT22;52327;42.622;23.316;2022-09-29T18:27:56;14.47;94.21
65637;DHT22;52327;42.622;23.316;2022-09-29T18:30:27;14.63;93.67
65637;DHT22;52327;42.622;23.316;2022-09-29T18:32:56;14.52;93.95
65637;DHT22;52327;42.622;23.316;2022-09-29T18:35:29;14.34;94.19
65637;DHT22;52327;42.622;23.316;2022-09-29T18:37:55;14.45;94.20
65637;DHT22;52327;42.622;23.316;2022-09-29T18:40:22;14.50;93.19
65637;DHT22;52327;42.622;23.316;2022-09-29T18:42:49;14.50;93.94
65637;DHT22;52327;42.622;23.316;2022-09-29T18:45:22;14.57;93.85
65637;DHT22;52327;42.622;23.316;2022-09-29T18:47:53;14.61;93.73
65637;DHT22;52327;42.622;23.316;2022-09-29T18:50:23;14.78;93.24
65637;DHT22;52327;42.622;23.316;2022-09-29T18:52:49;14.89;92.99
65637;DHT22;52327;42.622;23.316;2022-09-29T18:55:20;14.80;92.10
65637;DHT22;52327;42.622;23.316;2022-09-29T18:57:47;14.84;92.35
65637;DHT22;52327;42.622;23.316;2022-09-29T19:00:15;14.71;92.65
65637;DHT22;52327;42.622;23.316;2022-09-29T19:02:41;14.70;93.61
65637;DHT22;52327;42.622;23.316;2022-09-29T19:05:09;14.70;93.34
65637;DHT22;52327;42.622;23.316;2022-09-29T19:07:37;14.70;93.37
65637;DHT22;52327;42.622;23.316;2022-09-29T19:10:03;14.68;92.63
65637;DHT22;52327;42.622;23.316;2022-09-29T19:12:28;14.77;93.18
65637;DHT22;52327;42.622;23.316;2022-09-29T19:14:56;14.78;92.73
65637;DHT22;52327;42.622;23.316;2022-09-29T19:17:28;14.89;92.44
65637;DHT22;52327;42.622;23.316;2022-09-29T19:19:55;14.91;92.75
65637;DHT22;52327;42.622;23.316;2022-09-29T19:22:20;14.92;92.90
65637;DHT22;52327;42.622;23.316;2022-09-29T19:24:46;14.95;93.11
65637;DHT22;52327;42.622;23.316;2022-09-29T19:27:11;14.93;92.64
65637;DHT22;52327;42.622;23.316;2022-09-29T19:29:37;14.91;92.81
65637;DHT22;52327;42.622;23.316;2022-09-29T19:32:03;14.95;92.84
65637;DHT22;52327;42.622;23.316;2022-09-29T19:34:32;14.80;92.61
65637;DHT22;52327;42.622;23.316;2022-09-29T19:36:57;14.64;93.37
65637;DHT22;52327;42.622;23.316;2022-09-29T19:39:22;14.71;93.34
65637;DHT22;52327;42.622;23.316;2022-09-29T19:41:50;14.75;93.55
65637;DHT22;52327;42.622;23.316;2022-09-29T19:44:15;14.89;93.09
65637;DHT22;52327;42.622;23.316;2022-09-29T19:46:41;14.85;93.12
65637;DHT22;52327;42.622;23.316;2022-09-29T19:49:07;14.77;93.38
65637;DHT22;52327;42.622;23.316;2022-09-29T19:51:32;14.63;93.38
65637;DHT22;52327;42.622;23.316;2022-09-29T19:54:16;14.41;94.14
65637;DHT22;52327;42.622;23.316;2022-09-29T19:56:57;14.43;94.30
65637;DHT22;52327;42.622;23.316;2022-09-29T19:59:30;14.57;94.30
65637;DHT22;52327;42.622;23.316;2022-09-29T20:01:57;14.71;93.93
65637;DHT22;52327;42.622;23.316;2022-09-29T20:04:25;14.89;92.92
65637;DHT22;52327;42.622;23.316;2022-09-29T20:06:51;14.88;93.34
65637;DHT22;52327;42.622;23.316;2022-09-29T20:09:17;14.72;93.13
65637;DHT22;52327;42.622;23.316;2022-09-29T20:11:43;14.74;93.37
65637;DHT22;52327;42.622;23.316;2022-09-29T20:14:11;14.71;93.50
65637;DHT22;52327;42.622;23.316;2022-09-29T20:16:39;14.71;93.54
65637;DHT22;52327;42.622;23.316;2022-09-29T20:19:06;14.82;93.52
65637;DHT22;52327;42.622;23.316;2022-09-29T20:21:32;14.84;93.33
65637;DHT22;52327;42.622;23.316;2022-09-29T20:23:59;14.78;93.15
65637;DHT22;52327;42.622;23.316;2022-09-29T20:26:25;14.81;92.89
65637;DHT22;52327;42.622;23.316;2022-09-29T20:28:51;14.82;92.89